地図

経路データ

SID SEASON NUMBER BASIN SUBBASIN NAME ISO_TIME NATURE LAT LON WMO_WIND WMO_PRES WMO_AGENCY TRACK_TYPE DIST2LAND LANDFALL IFLAG USA_AGENCY USA_ATCF_ID USA_LAT USA_LON USA_RECORD USA_STATUS USA_WIND USA_PRES USA_SSHS USA_R34_NE USA_R34_SE USA_R34_SW USA_R34_NW USA_R50_NE USA_R50_SE USA_R50_SW USA_R50_NW USA_R64_NE USA_R64_SE USA_R64_SW USA_R64_NW USA_POCI USA_ROCI USA_RMW USA_EYE TOKYO_LAT TOKYO_LON TOKYO_GRADE TOKYO_WIND TOKYO_PRES TOKYO_R50_DIR TOKYO_R50_LONG TOKYO_R50_SHORT TOKYO_R30_DIR TOKYO_R30_LONG TOKYO_R30_SHORT TOKYO_LAND CMA_LAT CMA_LON CMA_CAT CMA_WIND CMA_PRES HKO_LAT HKO_LON HKO_CAT HKO_WIND HKO_PRES NEWDELHI_LAT NEWDELHI_LON NEWDELHI_GRADE NEWDELHI_WIND NEWDELHI_PRES NEWDELHI_CI NEWDELHI_DP NEWDELHI_POCI REUNION_LAT REUNION_LON REUNION_TYPE REUNION_WIND REUNION_PRES REUNION_TNUM REUNION_CI REUNION_RMW REUNION_R34_NE REUNION_R34_SE REUNION_R34_SW REUNION_R34_NW REUNION_R50_NE REUNION_R50_SE REUNION_R50_SW REUNION_R50_NW REUNION_R64_NE REUNION_R64_SE REUNION_R64_SW REUNION_R64_NW BOM_LAT BOM_LON BOM_TYPE BOM_WIND BOM_PRES BOM_TNUM BOM_CI BOM_RMW BOM_R34_NE BOM_R34_SE BOM_R34_SW BOM_R34_NW BOM_R50_NE BOM_R50_SE BOM_R50_SW BOM_R50_NW BOM_R64_NE BOM_R64_SE BOM_R64_SW BOM_R64_NW BOM_ROCI BOM_POCI BOM_EYE BOM_POS_METHOD BOM_PRES_METHOD NADI_LAT NADI_LON NADI_CAT NADI_WIND NADI_PRES WELLINGTON_LAT WELLINGTON_LON WELLINGTON_WIND WELLINGTON_PRES DS824_LAT DS824_LON DS824_STAGE DS824_WIND DS824_PRES TD9636_LAT TD9636_LON TD9636_STAGE TD9636_WIND TD9636_PRES TD9635_LAT TD9635_LON TD9635_WIND TD9635_PRES TD9635_ROCI NEUMANN_LAT NEUMANN_LON NEUMANN_CLASS NEUMANN_WIND NEUMANN_PRES MLC_LAT MLC_LON MLC_CLASS MLC_WIND MLC_PRES USA_GUST BOM_GUST BOM_GUST_PER REUNION_GUST REUNION_GUST_PER USA_SEAHGT USA_SEARAD_NE USA_SEARAD_SE USA_SEARAD_SW USA_SEARAD_NW STORM_SPEED STORM_DIR
1963001S10080 1963 1 SI MM NOT_NAMED 1963-01-01 00:00:00 TS -10.0000 80.0000 main 1782 1782 O________OO_O_ jtwc_sh SH111963 -10.0000 80.0000 35 0 -10.0000 80.0000 TC 35 -10.0000 80.0000 2 35 -10.0000 80.0000 TC 35 3 135
1963001S10080 1963 1 SI MM NOT_NAMED 1963-01-01 03:00:00 TS -10.0969 80.0969 main 1793 1793 P________PP_P_ SH111963 -10.0875 80.0875 30 -1 -10.0875 80.0875 TC 30 -10.1250 80.1249 2 31 -10.0875 80.0875 TC 30 3 135
1963001S10080 1963 1 SI MM NOT_NAMED 1963-01-01 06:00:00 TS -10.2039 80.2038 main 1804 1804 O________OP_O_ jtwc_sh SH111963 -10.2000 80.2000 25 -1 -10.2000 80.2000 TC 25 -10.2500 80.2499 2 27 -10.2000 80.2000 TC 25 3 135
1963001S10080 1963 1 SI MM NOT_NAMED 1963-01-01 09:00:00 TS -10.3445 80.3458 main 1815 1815 P________PP_P_ SH111963 -10.3500 80.3500 22 -1 -10.3500 80.3500 TC 22 -10.3750 80.3750 2 23 -10.3500 80.3500 TC 22 4 136
1963001S10080 1963 1 SI MM NOT_NAMED 1963-01-01 12:00:00 TS -10.4850 80.4850 main 1837 1837 O________OO_O_ jtwc_sh SH111963 -10.5000 80.5000 20 -1 -10.5000 80.5000 TC 20 -10.5000 80.5000 1 20 -10.5000 80.5000 TC 20 3 137
1963001S10080 1963 1 SI MM NOT_NAMED 1963-01-01 15:00:00 TS -10.5970 80.5887 main 1848 1848 P________PP_P_ SH111963 -10.6000 80.6000 20 -1 -10.6000 80.6000 TC 20 -10.6250 80.6250 1 20 -10.6000 80.6000 TC 20 3 138
1963001S10080 1963 1 SI MM NOT_NAMED 1963-01-01 18:00:00 TS -10.7137 80.6978 main 1860 1860 O________OP_O_ jtwc_sh SH111963 -10.7000 80.7000 20 -1 -10.7000 80.7000 TC 20 -10.7500 80.7500 1 20 -10.7000 80.7000 TC 20 4 137
1963001S10080 1963 1 SI MM NOT_NAMED 1963-01-01 21:00:00 TS -10.8579 80.8417 main 1882 1882 P________PP_P_ SH111963 -10.8500 80.8500 20 -1 -10.8500 80.8500 TC 20 -10.8750 80.8750 1 20 -10.8500 80.8500 TC 20 4 136
1963001S10080 1963 1 SI MM NOT_NAMED 1963-01-02 00:00:00 TS -11.0000 80.9833 main 1894 1894 O________OO_O_ jtwc_sh SH111963 -11.0000 81.0000 20 -1 -11.0000 81.0000 TC 20 -11.0000 81.0000 1 20 -11.0000 81.0000 TC 20 4 136
1963001S10080 1963 1 SI MM NOT_NAMED 1963-01-02 03:00:00 TS -11.1131 81.0929 main 1905 1905 P________PP_P_ SH111963 -11.1000 81.1000 20 -1 -11.1000 81.1000 TC 20 -11.1331 81.1250 1 20 -11.1000 81.1000 TC 20 3 137
1963001S10080 1963 1 SI MM NOT_NAMED 1963-01-02 06:00:00 TS -11.2270 81.2000 main 1917 1917 O________OP_O_ jtwc_sh SH111963 -11.2000 81.2000 20 -1 -11.2000 81.2000 TC 20 -11.2650 81.2500 1 20 -11.2000 81.2000 TC 20 4 138
1963001S10080 1963 1 SI MM NOT_NAMED 1963-01-02 09:00:00 TS -11.3729 81.3333 main 1939 1939 P________PP_P_ SH111963 -11.3500 81.3500 20 -1 -11.3500 81.3500 TC 20 -11.3894 81.3750 1 20 -11.3500 81.3500 TC 20 4 138
1963001S10080 1963 1 SI MM NOT_NAMED 1963-01-02 12:00:00 TS -11.5156 81.4666 main 1952 1952 O________OO_O_ jtwc_sh SH111963 -11.5000 81.5000 20 -1 -11.5000 81.5000 TC 20 -11.5000 81.5000 1 20 -11.5000 81.5000 TC 20 3 137
1963001S10080 1963 1 SI MM NOT_NAMED 1963-01-02 15:00:00 TS -11.6276 81.5750 main 1963 1963 P________PP_P_ SH111963 -11.6150 81.6000 22 -1 -11.6150 81.6000 TC 22 -11.5934 81.6250 1 23 -11.6150 81.6000 TC 22 3 133
1963001S10080 1963 1 SI MM NOT_NAMED 1963-01-02 18:00:00 TS -11.7194 81.6833 main 1975 1975 O________OP_O_ jtwc_sh SH111963 -11.7000 81.7000 25 -1 -11.7000 81.7000 TC 25 -11.6725 81.7500 1 27 -11.7000 81.7000 TC 25 3 126
1963001S10080 1963 1 SI MM NOT_NAMED 1963-01-02 21:00:00 TS -11.7999 81.8154 main 1987 1987 P________PP_P_ SH111963 -11.7575 81.8500 30 -1 -11.7575 81.8500 TC 30 -11.7403 81.8750 1 31 -11.7575 81.8500 TC 30 3 119
1963001S10080 1963 1 SI MM NOT_NAMED 1963-01-03 00:00:00 TS -11.8667 81.9500 main 2000 2000 O________OO_O_ jtwc_sh SH111963 -11.8000 82.0000 35 0 -11.8000 82.0000 TC 35 -11.8000 82.0000 2 35 -11.8000 82.0000 TC 35 3 116
1963001S10080 1963 1 SI MM NOT_NAMED 1963-01-03 03:00:00 TS -11.9223 82.0669 main 2001 2001 P________PP_P_ SH111963 -11.8500 82.1000 37 0 -11.8500 82.1000 TC 37 -11.8531 82.1413 2 36 -11.8500 82.1000 TC 37 3 114
1963001S10080 1963 1 SI MM NOT_NAMED 1963-01-03 06:00:00 TS -11.9707 82.1884 main 2013 2013 O________OP_O_ jtwc_sh SH111963 -11.9000 82.2000 40 0 -11.9000 82.2000 TC 40 -11.9000 82.2800 2 37 -11.9000 82.2000 TC 40 3 110
1963001S10080 1963 1 SI MM NOT_NAMED 1963-01-03 09:00:00 TS -12.0221 82.3406 main 2014 2014 P________PP_P_ SH111963 -11.9500 82.3575 40 0 -11.9500 82.3575 TC 40 -11.9469 82.4038 2 38 -11.9500 82.3575 TC 40 3 108
1963001S10080 1963 1 SI MM NOT_NAMED 1963-01-03 12:00:00 TS -12.0667 82.4833 main 2027 2027 O________OO_O_ jtwc_sh SH111963 -12.0000 82.5000 40 0 -12.0000 82.5000 TC 40 -12.0000 82.5000 2 40 -12.0000 82.5000 TC 40 3 107
1963001S10080 1963 1 SI MM NOT_NAMED 1963-01-03 15:00:00 TS -12.0957 82.5933 main 2028 2028 P________PP_P_ SH111963 -12.0425 82.5725 37 0 -12.0425 82.5725 TC 37 -12.0718 82.5619 2 36 -12.0425 82.5725 TC 37 2 106
1963001S10080 1963 1 SI MM NOT_NAMED 1963-01-03 18:00:00 TS -12.1187 82.6700 main 2030 2030 O________OP_O_ jtwc_sh SH111963 -12.1000 82.6000 35 0 -12.1000 82.6000 TC 35 -12.1500 82.5950 2 32 -12.1000 82.6000 TC 35 1 113
1963001S10080 1963 1 SI MM NOT_NAMED 1963-01-03 21:00:00 TS -12.1474 82.7175 main 2030 2030 P________PP_P_ SH111963 -12.2000 82.6000 30 -1 -12.2000 82.6000 TC 30 -12.2281 82.6056 2 28 -12.2000 82.6000 TC 30 1 137
1963001S10080 1963 1 SI MM NOT_NAMED 1963-01-04 00:00:00 TS -12.1833 82.7333 main 2041 2041 O________OO_O_ jtwc_sh SH111963 -12.3000 82.6000 25 -1 -12.3000 82.6000 TC 25 -12.3000 82.6000 1 25 -12.3000 82.6000 TC 25 1 175
1963001S10080 1963 1 SI MM NOT_NAMED 1963-01-04 03:00:00 TS -12.2262 82.7438 main 2041 2041 P________PP_P_ SH111963 -12.3575 82.6650 22 -1 -12.3575 82.6650 TC 22 -12.3409 82.6258 1 23 -12.3575 82.6650 TC 22 1 0
1963001S10080 1963 1 SI MM NOT_NAMED 1963-01-04 06:00:00 TS -12.2816 82.7096 main 2052 2051 O________OP_O_ jtwc_sh SH111963 -12.4000 82.7000 20 -1 -12.4000 82.7000 TC 20 -12.3773 82.6323 1 22 -12.4000 82.7000 TC 20 2 226
1963001S10080 1963 1 SI MM NOT_NAMED 1963-01-04 09:00:00 TS -12.3450 82.6151 main 2051 2051 P________PP_P_ SH111963 -12.4350 82.6450 20 -1 -12.4350 82.6450 TC 20 -12.4252 82.5976 1 21 -12.4350 82.6450 TC 20 3 238
1963001S10080 1963 1 SI MM NOT_NAMED 1963-01-04 12:00:00 TS -12.4333 82.4667 main 2061 2060 O________OO_O_ jtwc_sh SH111963 -12.5000 82.5000 20 -1 -12.5000 82.5000 TC 20 -12.5000 82.5000 1 20 -12.5000 82.5000 TC 20 4 236
1963001S10080 1963 1 SI MM NOT_NAMED 1963-01-04 15:00:00 TS -12.5586 82.2862 main 2081 2080 P________PP_P_ SH111963 -12.6350 82.2725 20 -1 -12.6350 82.2725 TC 20 -12.6295 82.3149 1 20 -12.6350 82.2725 TC 20 5 234
1963001S10080 1963 1 SI MM NOT_NAMED 1963-01-04 18:00:00 TS -12.7058 82.0773 main 2090 2089 O________OP_O_ jtwc_sh SH111963 -12.8000 82.0000 20 -1 -12.8000 82.0000 TC 20 -12.7852 82.0678 1 20 -12.8000 82.0000 TC 20 5 234
1963001S10080 1963 1 SI MM NOT_NAMED 1963-01-04 21:00:00 TS -12.8550 81.8727 main 2111 2109 P________PP_P_ SH111963 -12.9575 81.7500 20 -1 -12.9575 81.7500 TC 20 -12.9482 81.7867 1 20 -12.9575 81.7500 TC 20 5 235
1963001S10080 1963 1 SI MM NOT_NAMED 1963-01-05 00:00:00 TS -13.0000 81.6500 main 2121 2120 O________OO_O_ jtwc_sh SH111963 -13.1000 81.5000 20 -1 -13.1000 81.5000 TC 20 -13.1000 81.5000 1 20 -13.1000 81.5000 TC 20 5 239
1963001S10080 1963 1 SI MM NOT_NAMED 1963-01-05 03:00:00 TS -13.1270 81.4030 main 2130 2130 P________PP_P_ SH111963 -13.2075 81.2500 20 -1 -13.2075 81.2500 TC 20 -13.2141 81.2701 1 20 -13.2075 81.2500 TC 20 6 244
1963001S10080 1963 1 SI MM NOT_NAMED 1963-01-05 06:00:00 TS -13.2442 81.1341 main 2140 2140 O________OP_O_ jtwc_sh SH111963 -13.3000 81.0000 20 -1 -13.3000 81.0000 TC 20 -13.3146 81.0372 1 20 -13.3000 81.0000 TC 20 6 246
1963001S10080 1963 1 SI MM NOT_NAMED 1963-01-05 09:00:00 TS -13.3568 80.8625 main 2162 2162 P________PP_P_ SH111963 -13.3999 80.7650 20 -1 -13.3999 80.7650 TC 20 -13.4078 80.7857 1 20 -13.3999 80.7650 TC 20 6 248
1963001S10080 1963 1 SI MM NOT_NAMED 1963-01-05 12:00:00 TS -13.4668 80.5594 main 2173 2173 O________OO_O_ jtwc_sh SH111963 -13.5000 80.5000 20 -1 -13.5000 80.5000 TC 20 -13.5000 80.5000 1 20 -13.5000 80.5000 TC 20 7 251
1963001S10080 1963 1 SI MM NOT_NAMED 1963-01-05 15:00:00 TS -13.5779 80.2072 main 2185 2185 P________PP_P_ SH111963 -13.6000 80.1725 20 -1 -13.6000 80.1725 TC 20 -13.5919 80.1608 1 20 -13.6000 80.1725 TC 20 8 253
1963001S10080 1963 1 SI MM NOT_NAMED 1963-01-05 18:00:00 TS -13.6893 79.8216 main 2197 2197 O________OP_O_ jtwc_sh SH111963 -13.7000 79.8000 20 -1 -13.7000 79.8000 TC 20 -13.6851 79.7873 1 20 -13.7000 79.8000 TC 20 8 254
1963001S10080 1963 1 SI MM NOT_NAMED 1963-01-05 21:00:00 TS -13.7993 79.4179 main 2211 2211 P________PP_P_ SH111963 -13.7925 79.3999 20 -1 -13.7925 79.3999 TC 20 -13.7856 79.3951 1 20 -13.7925 79.3999 TC 20 8 254
1963001S10080 1963 1 SI MM NOT_NAMED 1963-01-06 00:00:00 TS -13.9167 79.0167 main 2225 2225 O________OO_O_ jtwc_sh SH111963 -13.9000 79.0000 20 -1 -13.9000 79.0000 TC 20 -13.9000 79.0000 1 20 -13.9000 79.0000 TC 20 8 251
1963001S10080 1963 1 SI MM NOT_NAMED 1963-01-06 03:00:00 TS -14.0498 78.6535 main 2239 2239 P________PP_P_ SH111963 -14.0424 78.6500 20 -1 -14.0424 78.6500 TC 20 -14.0396 78.6169 1 18 -14.0424 78.6500 TC 20 8 249
1963001S10080 1963 1 SI MM NOT_NAMED 1963-01-06 06:00:00 TS -14.1904 78.2896 main 2266 2235 O________OP_O_ jtwc_sh SH111963 -14.2000 78.3000 20 -1 -14.2000 78.3000 TC 20 -14.1924 78.2351 1 17 -14.2000 78.3000 TC 20 8 249
1963001S10080 1963 1 SI MM NOT_NAMED 1963-01-06 09:00:00 TS -14.3327 77.8909 main 2235 2187 P________PP_P_ SH111963 -14.3575 77.8925 17 -1 -14.3575 77.8925 TC 17 -14.3490 77.8607 1 16 -14.3575 77.8925 TC 17 8 250
1963001S10080 1963 1 SI MM NOT_NAMED 1963-01-06 12:00:00 TS -14.4667 77.5000 main 2187 2152 O________OO_O_ jtwc_sh SH111963 -14.5000 77.5000 15 -1 -14.5000 77.5000 TC 15 -14.5000 77.5000 1 15 -14.5000 77.5000 TC 15 7 251
1963001S10080 1963 1 SI MM NOT_NAMED 1963-01-06 15:00:00 TS -14.5735 77.1603 main 2152 2108 P________PP_P_ SH111963 -14.5999 77.1924 15 -1 -14.5999 77.1924 TC 15 -14.6318 77.1766 1 16 -14.5999 77.1924 TC 15 7 251
1963001S10080 1963 1 SI MM NOT_NAMED 1963-01-06 18:00:00 TS -14.6844 76.8310 main 2108 2074 O________OP_O_ jtwc_sh SH111963 -14.7000 76.9000 15 -1 -14.7000 76.9000 TC 15 -14.7569 76.8646 1 17 -14.7000 76.9000 TC 15 7 248
1963001S10080 1963 1 SI MM NOT_NAMED 1963-01-06 21:00:00 TS -14.8338 76.4787 main 2074 2026 P________PP_P_ SH111963 -14.8499 76.5650 17 -1 -14.8499 76.5650 TC 17 -14.8786 76.5453 1 18 -14.8499 76.5650 TC 17 8 247
1963001S10080 1963 1 SI MM NOT_NAMED 1963-01-07 00:00:00 TS -14.9832 76.1104 main 2026 1992 O________OO_O_ jtwc_sh SH111963 -15.0000 76.2000 20 -1 -15.0000 76.2000 TC 20 -15.0000 76.2000 1 20 -15.0000 76.2000 TC 20 8 250
1963001S10080 1963 1 SI MM NOT_NAMED 1963-01-07 03:00:00 TS -15.0928 75.7306 main 1982 1948 P________PP_P_ SH111963 -15.0999 75.8149 20 -1 -15.0999 75.8149 TC 20 -15.1251 75.7996 1 18 -15.0999 75.8149 TC 20 8 254
1963001S10080 1963 1 SI MM NOT_NAMED 1963-01-07 06:00:00 TS -15.1999 75.3323 main 1938 1893 O________OP_O_ jtwc_sh SH111963 -15.2000 75.4000 20 -1 -15.2000 75.4000 TC 20 -15.2501 75.3724 1 17 -15.2000 75.4000 TC 20 8 253
1963001S10080 1963 1 SI MM NOT_NAMED 1963-01-07 09:00:00 TS -15.3416 74.9071 main 1893 1845 P________PP_P_ SH111963 -15.3500 74.9501 17 -1 -15.3500 74.9501 TC 17 -15.3750 74.9340 1 16 -15.3500 74.9501 TC 17 9 251
1963001S10080 1963 1 SI MM NOT_NAMED 1963-01-07 12:00:00 TS -15.4833 74.4833 main 1845 1801 O________OO_O_ jtwc_sh SH111963 -15.5000 74.5000 15 -1 -15.5000 74.5000 TC 15 -15.5000 74.5000 1 15 -15.5000 74.5000 TC 15 8 253
1963001S10080 1963 1 SI MM NOT_NAMED 1963-01-07 15:00:00 TS -15.5842 74.0930 main 1801 1757 P________PP_P_ SH111963 -15.5999 74.0924 15 -1 -15.5999 74.0924 TC 15 -15.6045 74.0843 1 16 -15.5999 74.0924 TC 15 8 255
1963001S10080 1963 1 SI MM NOT_NAMED 1963-01-07 18:00:00 TS -15.6868 73.7146 main 1757 1723 O________OP_O_ jtwc_sh SH111963 -15.7000 73.7000 15 -1 -15.7000 73.7000 TC 15 -15.7123 73.6769 1 17 -15.7000 73.7000 TC 15 8 252
1963001S10080 1963 1 SI MM NOT_NAMED 1963-01-07 21:00:00 TS -15.8280 73.3297 main 1713 1675 P________PP_P_ SH111963 -15.8500 73.2925 17 -1 -15.8500 73.2925 TC 17 -15.8389 73.2811 1 18 -15.8500 73.2925 TC 17 8 248
1963001S10080 1963 1 SI MM NOT_NAMED 1963-01-08 00:00:00 TS -15.9833 72.9500 main 1675 1631 O________OO_O_ jtwc_sh SH111963 -16.0000 72.9000 20 -1 -16.0000 72.9000 TC 20 -16.0000 72.9000 1 20 -16.0000 72.9000 TC 20 8 250
1963001S10080 1963 1 SI MM NOT_NAMED 1963-01-08 03:00:00 TS -16.0968 72.5765 main 1631 1584 P________PP_P_ SH111963 -16.0624 72.5422 20 -1 -16.0624 72.5422 TC 20 -16.1328 72.5186 1 18 -16.0624 72.5422 TC 20 8 248
1963001S10080 1963 1 SI MM NOT_NAMED 1963-01-08 06:00:00 TS -16.2638 72.2090 main 1584 1546 O________OP_O_ jtwc_sh SH111963 -16.2000 72.2000 20 -1 -16.2000 72.2000 TC 20 -16.3125 72.1538 1 17 -16.2000 72.2000 TC 20 8 238
1963001S10080 1963 1 SI MM NOT_NAMED 1963-01-08 09:00:00 TS -16.5371 71.8376 main 1536 1492 P________PP_P_ SH111963 -16.5025 71.8424 17 -1 -16.5025 71.8424 TC 17 -16.5860 71.8121 1 16 -16.5025 71.8424 TC 17 10 226
1963001S10080 1963 1 SI MM NOT_NAMED 1963-01-08 12:00:00 TS -16.9333 71.4833 main 1492 1446 O________OO_O_ jtwc_sh SH111963 -17.0000 71.5000 15 -1 -17.0000 71.5000 TC 15 -17.0000 71.5000 1 15 -17.0000 71.5000 TC 15 11 217
1963001S10080 1963 1 SI MM NOT_NAMED 1963-01-08 15:00:00 TS -17.4243 71.1419 main 1436 1399 P________PP_P_ SH111963 -17.6975 71.1776 17 -1 -17.6975 71.1776 TC 17 -17.6062 71.2017 1 16 -17.6975 71.1776 TC 17 12 210
1963001S10080 1963 1 SI MM NOT_NAMED 1963-01-08 18:00:00 TS -17.9989 70.8366 main 1389 1357 O________OP_O_ jtwc_sh SH111963 -18.5000 70.9000 20 -1 -18.5000 70.9000 TC 20 -18.3501 70.9335 1 17 -18.5000 70.9000 TC 20 13 205
1963001S10080 1963 1 SI MM NOT_NAMED 1963-01-08 21:00:00 TS -18.5769 70.5783 main 1355 1323 P________PP_P_ SH111963 -19.2499 70.6772 20 -1 -19.2499 70.6772 TC 20 -19.1689 70.6984 1 18 -19.2499 70.6772 TC 20 13 200
1963001S10080 1963 1 SI MM NOT_NAMED 1963-01-09 00:00:00 TS -19.2500 70.3667 main 1323 1294 O________OO_O_ jtwc_sh SH111963 -20.0000 70.5000 20 -1 -20.0000 70.5000 TC 20 -20.0000 70.5000 1 20 -20.0000 70.5000 TC 20 15 194
1963001S10080 1963 1 SI MM NOT_NAMED 1963-01-09 03:00:00 TS -20.0552 70.1795 main 1293 1271 P________PP_P_ SH111963 -20.7500 70.3349 17 -1 -20.7500 70.3349 TC 17 -20.6973 70.3105 1 18 -20.7500 70.3349 TC 17 18 190
1963001S10080 1963 1 SI MM NOT_NAMED 1963-01-09 06:00:00 TS -20.9793 70.0340 main 1271 1265 O________OP_O_ jtwc_sh SH111963 -21.5000 70.2000 15 -1 -21.5000 70.2000 TC 15 -21.4027 70.1603 1 17 -21.5000 70.2000 TC 15 20 187
1963001S10080 1963 1 SI MM NOT_NAMED 1963-01-09 09:00:00 TS -21.9784 69.9191 main 1268 1268 P________PP_P_ SH111963 -22.2125 70.0848 15 -1 -22.2125 70.0848 TC 15 -22.1567 70.0549 1 16 -22.2125 70.0848 TC 15 21 185
1963001S10080 1963 1 SI MM NOT_NAMED 1963-01-09 12:00:00 TS -23.0333 69.8500 main 1285 1275 O________OO_O_ jtwc_sh SH111963 -23.0000 70.0000 15 -1 -23.0000 70.0000 TC 15 -23.0000 70.0000 1 15 -23.0000 70.0000 TC 15 21 183
1963001S10080 1963 1 SI MM NOT_NAMED 1963-01-09 15:00:00 TS -24.0781 69.7940 main 1305 1305 P________PP_P_ SH111963 -23.9400 69.9131 15 -1 -23.9400 69.9131 TC 15 -23.9654 69.9569 1 15 -23.9400 69.9131 TC 15 21 181
1963001S10080 1963 1 SI MM NOT_NAMED 1963-01-09 18:00:00 TS -25.1624 69.8092 main 1345 1345 O________OP_O_ jtwc_sh SH111963 -25.0000 69.9000 15 -1 -25.0000 69.9000 TC 15 -25.0227 69.9686 1 15 -25.0000 69.9000 TC 15 22 177
1963001S10080 1963 1 SI MM NOT_NAMED 1963-01-09 21:00:00 TS -26.2875 69.9100 main 1402 1402 P________PP_P_ SH111963 -26.1200 69.9977 15 -1 -26.1200 69.9977 TC 15 -26.1436 70.0458 1 15 -26.1200 69.9977 TC 15 23 173
1963001S10080 1963 1 SI MM NOT_NAMED 1963-01-10 00:00:00 TS -27.4333 70.1000 main 1475 1475 O________OO_O_ jtwc_sh SH111963 -27.3000 70.2000 15 -1 -27.3000 70.2000 TC 15 -27.3000 70.2000 1 15 -27.3000 70.2000 TC 15 23 170
1963001S10080 1963 1 SI MM NOT_NAMED 1963-01-10 03:00:00 TS -28.5832 70.3606 main 1568 1568 P________PP_P_ SH111963 -28.5000 70.4701 15 -1 -28.5000 70.4701 TC 15 -28.4910 70.4427 1 15 -28.5000 70.4701 TC 15 24 167
1963001S10080 1963 1 SI MM NOT_NAMED 1963-01-10 06:00:00 TS -29.7285 70.6838 main 1661 1661 O________OP_O_ jtwc_sh SH111963 -29.7000 70.8000 15 -1 -29.7000 70.8000 TC 15 -29.7028 70.7632 1 15 -29.7000 70.8000 TC 15 24 166
1963001S10080 1963 1 SI MM NOT_NAMED 1963-01-10 09:00:00 TS -30.8632 71.0374 main 1764 1764 P________PP_P_ SH111963 -30.8800 71.1501 15 -1 -30.8800 71.1501 TC 15 -30.8881 71.1277 1 15 -30.8800 71.1501 TC 15 23 165
1963001S10080 1963 1 SI MM NOT_NAMED 1963-01-10 12:00:00 TS -31.9500 71.4000 main 1871 1783 O________OO_O_ jtwc_sh SH111963 -32.0000 71.5000 15 -1 -32.0000 71.5000 TC 15 -32.0000 71.5000 1 15 -32.0000 71.5000 TC 15 22 164
1963001S10080 1963 1 SI MM NOT_NAMED 1963-01-10 15:00:00 TS -32.9738 71.7360 main 1772 1677 P________PP_P_ SH111963 -33.0522 71.8010 15 -1 -33.0522 71.8010 TC 15 -33.0046 71.8496 1 13 -33.0522 71.8010 TC 15 21 164
1963001S10080 1963 1 SI MM NOT_NAMED 1963-01-10 18:00:00 TS -33.9224 72.0706 main 1677 1581 O________OP_O_ jtwc_sh SH111963 -34.0000 72.1000 15 -1 -34.0000 72.1000 TC 15 -33.9196 72.1767 1 12 -34.0000 72.1000 TC 15 19 163
1963001S10080 1963 1 SI MM NOT_NAMED 1963-01-10 21:00:00 TS -34.7982 72.4264 main 1581 1500 P________PP_P_ SH111963 -34.8328 72.4360 12 -1 -34.8328 72.4360 TC 12 -34.7749 72.4903 1 11 -34.8328 72.4360 TC 12 18 161
1963001S10080 1963 1 SI MM NOT_NAMED 1963-01-11 00:00:00 TS -35.6333 72.8000 main 1500 O________OO_O_ jtwc_sh SH111963 -35.6000 72.8000 10 -1 -35.6000 72.8000 TC 10 -35.6000 72.8000 1 10 -35.6000 72.8000 TC 10 18 160

IBTrACS Databaseについて

本データベースは、米国NOAAが公開する1842年以降の世界の熱帯低気圧のベストトラックデータアーカイブInternational Best Track Archive for Climate Stewardship (IBTrACS)を、ウェブで閲覧しやすい形式に変換したものです。

最終更新日:2021-10-25